Time,TemperatureF,DewpointF,PressureIn,WindDirection,WindDirectionDegrees,WindSpeedMPH,WindSpeedGustMPH,Humidity,HourlyPrecipIn,Conditions,Clouds,dailyrainin,SoftwareType,DateUTC
2013-06-20 00:01:00,68.5,62.5,30.01,SSE,158,0.0,0.0,81,0.00,,,0.02,WUHU216HW,2013-06-20 04:01:00,
2013-06-20 00:02:00,68.5,62.5,30.01,SSE,158,0.0,0.0,81,0.00,,,0.00,WUHU216HW,2013-06-20 04:02:00,
2013-06-20 00:07:00,68.5,62.8,30.01,SSE,158,0.0,0.0,82,0.00,,,0.00,WUHU216HW,2013-06-20 04:07:00,
2013-06-20 00:12:00,68.3,62.6,30.01,SSE,158,0.0,0.0,82,0.00,,,0.00,WUHU216HW,2013-06-20 04:12:00,
2013-06-20 00:17:00,68.1,62.5,30.01,SSE,158,0.0,0.0,82,0.00,,,0.00,WUHU216HW,2013-06-20 04:17:00,
2013-06-20 00:22:00,68.0,62.3,30.01,SSE,158,0.0,0.0,82,0.00,,,0.00,WUHU216HW,2013-06-20 04:22:00,
2013-06-20 00:27:00,67.8,62.1,30.01,SSE,158,0.0,0.0,82,0.00,,,0.00,WUHU216HW,2013-06-20 04:27:00,
2013-06-20 00:32:00,67.8,62.4,30.01,SSE,158,0.0,0.0,83,0.00,,,0.00,WUHU216HW,2013-06-20 04:32:00,
2013-06-20 00:38:00,67.6,62.3,30.02,SSE,158,0.0,0.0,83,0.00,,,0.00,WUHU216HW,2013-06-20 04:38:00,
2013-06-20 00:43:00,67.6,62.3,30.02,SSE,158,0.0,0.0,83,0.00,,,0.00,WUHU216HW,2013-06-20 04:43:00,
2013-06-20 00:48:00,67.4,62.1,30.01,SSE,158,0.0,0.0,83,0.00,,,0.00,WUHU216HW,2013-06-20 04:48:00,
2013-06-20 00:53:00,67.2,61.9,30.01,SSE,158,0.0,0.0,83,0.00,,,0.00,WUHU216HW,2013-06-20 04:53:00,
2013-06-20 00:58:00,67.2,61.9,30.01,SSE,158,0.0,0.0,83,0.00,,,0.00,WUHU216HW,2013-06-20 04:58:00,
2013-06-20 01:03:00,67.2,61.9,30.02,SSE,158,0.0,0.0,83,0.00,,,0.00,WUHU216HW,2013-06-20 05:03:00,
2013-06-20 01:08:00,67.2,61.9,30.02,SSE,158,0.0,0.0,83,0.00,,,0.00,WUHU216HW,2013-06-20 05:08:00,
2013-06-20 01:13:00,67.1,61.7,30.02,SSE,158,0.0,0.0,83,0.00,,,0.00,WUHU216HW,2013-06-20 05:13:00,
2013-06-20 01:18:00,67.1,61.7,30.02,SSE,158,0.0,0.0,83,0.00,,,0.00,WUHU216HW,2013-06-20 05:18:00,
2013-06-20 01:23:00,66.9,61.5,30.02,SSE,158,0.0,0.0,83,0.00,,,0.00,WUHU216HW,2013-06-20 05:23:00,
2013-06-20 01:28:00,66.7,61.4,30.02,SSE,158,0.0,0.0,83,0.00,,,0.00,WUHU216HW,2013-06-20 05:28:00,
2013-06-20 01:33:00,66.5,61.5,30.02,SSE,158,0.0,0.0,84,0.00,,,0.00,WUHU216HW,2013-06-20 05:33:00,
2013-06-20 01:38:00,66.3,61.3,30.02,SSE,158,0.0,0.0,84,0.00,,,0.00,WUHU216HW,2013-06-20 05:38:00,
2013-06-20 01:43:00,66.3,61.3,30.02,SSE,158,0.0,0.0,84,0.00,,,0.00,WUHU216HW,2013-06-20 05:43:00,
2013-06-20 01:48:00,66.2,61.1,30.02,SSE,158,0.0,0.0,84,0.00,,,0.00,WUHU216HW,2013-06-20 05:48:00,
2013-06-20 01:53:00,66.0,61.0,30.02,SSE,158,0.0,0.0,84,0.00,,,0.00,WUHU216HW,2013-06-20 05:53:00,
2013-06-20 01:58:00,66.0,61.0,30.02,SSE,158,0.0,0.0,84,0.00,,,0.00,WUHU216HW,2013-06-20 05:58:00,
2013-06-20 02:03:00,66.0,61.0,30.02,SSE,158,0.0,0.0,84,0.00,,,0.00,WUHU216HW,2013-06-20 06:03:00,
2013-06-20 02:08:00,66.0,61.0,30.02,SSE,158,0.0,0.0,84,0.00,,,0.00,WUHU216HW,2013-06-20 06:08:00,
2013-06-20 02:13:00,66.0,61.0,30.02,SSE,158,0.0,0.0,84,0.00,,,0.00,WUHU216HW,2013-06-20 06:13:00,
2013-06-20 02:18:00,65.8,60.8,30.02,SSE,158,0.0,0.0,84,0.00,,,0.00,WUHU216HW,2013-06-20 06:18:00,
2013-06-20 02:23:00,65.6,60.6,30.02,SSE,158,0.0,0.0,84,0.00,,,0.00,WUHU216HW,2013-06-20 06:23:00,
2013-06-20 02:28:00,65.4,60.4,30.02,SSE,158,0.0,0.0,84,0.00,,,0.00,WUHU216HW,2013-06-20 06:28:00,
2013-06-20 02:33:00,65.4,60.4,30.03,SSE,158,0.0,0.0,84,0.00,,,0.00,WUHU216HW,2013-06-20 06:33:00,
2013-06-20 02:38:00,65.3,60.3,30.03,SSE,158,0.0,0.0,84,0.00,,,0.00,WUHU216HW,2013-06-20 06:38:00,
2013-06-20 02:43:00,65.3,60.3,30.02,SSE,158,0.0,0.0,84,0.00,,,0.00,WUHU216HW,2013-06-20 06:43:00,
2013-06-20 02:49:00,65.1,60.1,30.03,SSE,158,0.0,0.0,84,0.00,,,0.00,WUHU216HW,2013-06-20 06:49:00,
2013-06-20 02:54:00,65.1,60.1,30.03,SSE,158,0.0,0.0,84,0.00,,,0.00,WUHU216HW,2013-06-20 06:54:00,
2013-06-20 02:59:00,65.1,60.4,30.03,SSE,158,0.0,0.0,85,0.00,,,0.00,WUHU216HW,2013-06-20 06:59:00,
2013-06-20 03:04:00,64.9,60.3,30.02,SSE,158,0.0,0.0,85,0.00,,,0.00,WUHU216HW,2013-06-20 07:04:00,
2013-06-20 03:09:00,64.9,60.3,30.02,SSE,158,0.0,0.0,85,0.00,,,0.00,WUHU216HW,2013-06-20 07:09:00,
2013-06-20 03:14:00,64.9,60.3,30.02,SSE,158,0.0,0.0,85,0.00,,,0.00,WUHU216HW,2013-06-20 07:14:00,
2013-06-20 03:19:00,64.7,60.1,30.02,SSE,158,0.0,0.0,85,0.00,,,0.00,WUHU216HW,2013-06-20 07:19:00,
2013-06-20 03:24:00,64.7,60.1,30.02,SSE,158,0.0,0.0,85,0.00,,,0.00,WUHU216HW,2013-06-20 07:24:00,
2013-06-20 03:29:00,64.5,59.9,30.03,SSE,158,0.0,0.0,85,0.00,,,0.00,WUHU216HW,2013-06-20 07:29:00,
2013-06-20 03:34:00,64.5,59.9,30.02,SSE,158,0.0,0.0,85,0.00,,,0.00,WUHU216HW,2013-06-20 07:34:00,
2013-06-20 03:39:00,64.5,59.9,30.02,SSE,158,0.0,0.0,85,0.00,,,0.00,WUHU216HW,2013-06-20 07:39:00,
2013-06-20 03:44:00,64.2,59.6,30.02,SSE,158,0.0,0.0,85,0.00,,,0.00,WUHU216HW,2013-06-20 07:44:00,
2013-06-20 03:49:00,64.2,59.6,30.02,SSE,158,0.0,0.0,85,0.00,,,0.00,WUHU216HW,2013-06-20 07:49:00,
2013-06-20 03:54:00,64.2,59.6,30.02,SSE,158,0.0,0.0,85,0.00,,,0.00,WUHU216HW,2013-06-20 07:54:00,
2013-06-20 03:59:00,64.2,59.6,30.02,SSE,158,0.0,0.0,85,0.00,,,0.00,WUHU216HW,2013-06-20 07:59:00,
2013-06-20 04:04:00,64.2,59.6,30.02,SSE,158,0.0,0.0,85,0.00,,,0.00,WUHU216HW,2013-06-20 08:04:00,
2013-06-20 04:09:00,64.0,59.4,30.02,SSE,158,0.0,0.0,85,0.00,,,0.00,WUHU216HW,2013-06-20 08:09:00,
2013-06-20 04:14:00,64.0,59.4,30.03,SSE,158,0.0,0.0,85,0.00,,,0.00,WUHU216HW,2013-06-20 08:14:00,
2013-06-20 04:19:00,63.6,59.0,30.03,SSE,158,0.0,0.0,85,0.00,,,0.00,WUHU216HW,2013-06-20 08:19:00,
2013-06-20 04:24:00,63.8,59.2,30.03,SSE,158,0.0,0.0,85,0.00,,,0.00,WUHU216HW,2013-06-20 08:24:00,
2013-06-20 04:29:00,63.6,59.0,30.03,SSE,158,0.0,0.0,85,0.00,,,0.00,WUHU216HW,2013-06-20 08:29:00,
2013-06-20 04:34:00,63.5,59.2,30.03,SSE,158,0.0,0.0,86,0.00,,,0.00,WUHU216HW,2013-06-20 08:34:00,
2013-06-20 04:39:00,63.5,59.2,30.03,SSE,158,0.0,0.0,86,0.00,,,0.00,WUHU216HW,2013-06-20 08:39:00,
2013-06-20 04:44:00,63.3,59.0,30.03,SSE,158,0.0,0.0,86,0.00,,,0.00,WUHU216HW,2013-06-20 08:44:00,
2013-06-20 04:49:00,63.3,59.0,30.03,SSE,158,0.0,0.0,86,0.00,,,0.00,WUHU216HW,2013-06-20 08:49:00,
2013-06-20 04:55:00,63.3,59.0,30.04,SSE,158,0.0,0.0,86,0.00,,,0.00,WUHU216HW,2013-06-20 08:55:00,
2013-06-20 05:00:00,63.3,59.0,30.04,SSE,158,0.0,0.0,86,0.00,,,0.00,WUHU216HW,2013-06-20 09:00:00,
2013-06-20 05:05:00,63.1,58.8,30.04,SSE,158,0.0,0.0,86,0.00,,,0.00,WUHU216HW,2013-06-20 09:05:00,
2013-06-20 05:10:00,63.3,59.0,30.04,SSE,158,0.0,0.0,86,0.00,,,0.00,WUHU216HW,2013-06-20 09:10:00,
2013-06-20 05:15:00,63.1,58.8,30.04,SSE,158,0.0,0.0,86,0.00,,,0.00,WUHU216HW,2013-06-20 09:15:00,
2013-06-20 05:20:00,63.1,58.8,30.04,SSE,158,0.0,0.0,86,0.00,,,0.00,WUHU216HW,2013-06-20 09:20:00,
2013-06-20 05:25:00,63.1,58.8,30.04,SSE,158,0.0,0.0,86,0.00,,,0.00,WUHU216HW,2013-06-20 09:25:00,
2013-06-20 05:30:00,63.1,58.8,30.04,SSE,158,0.0,0.0,86,0.00,,,0.00,WUHU216HW,2013-06-20 09:30:00,
2013-06-20 05:35:00,62.9,58.7,30.05,SSE,158,0.0,0.0,86,0.00,,,0.00,WUHU216HW,2013-06-20 09:35:00,
2013-06-20 05:40:00,62.9,58.7,30.05,SSE,158,0.0,0.0,86,0.00,,,0.00,WUHU216HW,2013-06-20 09:40:00,
2013-06-20 05:45:00,62.9,58.7,30.04,SSE,158,0.0,0.0,86,0.00,,,0.00,WUHU216HW,2013-06-20 09:45:00,
2013-06-20 05:50:00,62.7,58.5,30.05,SSE,158,0.0,0.0,86,0.00,,,0.00,WUHU216HW,2013-06-20 09:50:00,
2013-06-20 05:55:00,62.7,58.5,30.05,SSE,158,0.0,0.0,86,0.00,,,0.00,WUHU216HW,2013-06-20 09:55:00,
2013-06-20 06:00:00,62.7,58.5,30.05,SE,135,0.0,0.0,86,0.00,,,0.00,WUHU216HW,2013-06-20 10:00:00,
2013-06-20 06:05:00,62.7,58.5,30.05,SSE,158,0.0,0.0,86,0.00,,,0.00,WUHU216HW,2013-06-20 10:05:00,
2013-06-20 06:10:00,62.7,58.1,30.05,SSE,158,0.0,0.0,85,0.00,,,0.00,WUHU216HW,2013-06-20 10:10:00,
2013-06-20 06:15:00,62.6,58.0,30.05,NE,45,0.0,0.0,85,0.00,,,0.00,WUHU216HW,2013-06-20 10:15:00,
2013-06-20 06:20:00,62.4,57.8,30.05,NE,45,0.0,0.0,85,0.00,,,0.00,WUHU216HW,2013-06-20 10:20:00,
2013-06-20 06:25:00,62.4,58.1,30.06,West,270,0.0,0.0,86,0.00,,,0.00,WUHU216HW,2013-06-20 10:25:00,
2013-06-20 06:30:00,62.2,57.9,30.06,West,270,0.0,0.0,86,0.00,,,0.00,WUHU216HW,2013-06-20 10:30:00,
2013-06-20 06:35:00,62.2,57.9,30.05,West,270,0.0,0.0,86,0.00,,,0.00,WUHU216HW,2013-06-20 10:35:00,
2013-06-20 06:40:00,62.2,57.9,30.06,West,270,0.0,0.0,86,0.00,,,0.00,WUHU216HW,2013-06-20 10:40:00,
2013-06-20 06:45:00,62.0,57.8,30.06,West,270,0.0,0.0,86,0.00,,,0.00,WUHU216HW,2013-06-20 10:45:00,
2013-06-20 06:50:00,62.0,57.8,30.06,West,270,0.0,0.0,86,0.00,,,0.00,WUHU216HW,2013-06-20 10:50:00,
2013-06-20 06:55:00,62.0,57.8,30.06,West,270,0.0,0.0,86,0.00,,,0.00,WUHU216HW,2013-06-20 10:55:00,
2013-06-20 07:00:00,62.0,57.8,30.06,West,270,0.0,0.0,86,0.00,,,0.00,WUHU216HW,2013-06-20 11:00:00,
2013-06-20 07:06:00,62.2,57.9,30.07,West,270,0.0,0.0,86,0.00,,,0.00,WUHU216HW,2013-06-20 11:06:00,
2013-06-20 07:11:00,62.2,57.9,30.06,West,270,0.0,0.0,86,0.00,,,0.00,WUHU216HW,2013-06-20 11:11:00,
2013-06-20 07:16:00,62.4,58.1,30.06,West,270,0.0,0.0,86,0.00,,,0.00,WUHU216HW,2013-06-20 11:16:00,
2013-06-20 07:21:00,62.4,58.1,30.06,West,270,0.0,0.0,86,0.00,,,0.00,WUHU216HW,2013-06-20 11:21:00,
2013-06-20 07:26:00,62.4,58.5,30.07,West,270,0.0,0.0,87,0.00,,,0.00,WUHU216HW,2013-06-20 11:26:00,
2013-06-20 07:31:00,62.4,58.5,30.07,West,270,0.0,0.0,87,0.00,,,0.00,WUHU216HW,2013-06-20 11:31:00,
2013-06-20 07:36:00,62.6,58.6,30.07,West,270,0.0,0.0,87,0.00,,,0.00,WUHU216HW,2013-06-20 11:36:00,
2013-06-20 07:41:00,62.7,58.8,30.07,West,270,0.0,0.0,87,0.00,,,0.00,WUHU216HW,2013-06-20 11:41:00,
2013-06-20 07:46:00,63.1,59.2,30.07,West,270,0.0,0.0,87,0.00,,,0.00,WUHU216HW,2013-06-20 11:46:00,
2013-06-20 07:51:00,63.1,59.2,30.07,West,270,0.0,0.0,87,0.00,,,0.00,WUHU216HW,2013-06-20 11:51:00,
2013-06-20 07:56:00,63.3,59.4,30.07,West,270,0.0,0.0,87,0.00,,,0.00,WUHU216HW,2013-06-20 11:56:00,
2013-06-20 08:01:00,63.6,59.7,30.07,West,270,0.0,0.0,87,0.00,,,0.00,WUHU216HW,2013-06-20 12:01:00,
2013-06-20 08:06:00,63.6,59.7,30.07,West,270,0.0,0.0,87,0.00,,,0.00,WUHU216HW,2013-06-20 12:06:00,
2013-06-20 08:11:00,64.0,60.4,30.08,West,270,0.0,0.0,88,0.00,,,0.00,WUHU216HW,2013-06-20 12:11:00,
2013-06-20 08:16:00,64.2,60.6,30.08,West,270,0.0,0.0,88,0.00,,,0.00,WUHU216HW,2013-06-20 12:16:00,
2013-06-20 08:21:00,64.2,60.6,30.08,West,270,0.0,0.0,88,0.00,,,0.00,WUHU216HW,2013-06-20 12:21:00,
2013-06-20 08:26:00,64.5,60.9,30.08,West,270,0.0,0.0,88,0.00,,,0.00,WUHU216HW,2013-06-20 12:26:00,
2013-06-20 08:31:00,64.9,61.3,30.08,North,0,0.0,0.0,88,0.00,,,0.00,WUHU216HW,2013-06-20 12:31:00,
2013-06-20 08:36:00,65.4,61.8,30.07,North,0,0.0,0.0,88,0.00,,,0.00,WUHU216HW,2013-06-20 12:36:00,
2013-06-20 08:41:00,65.8,62.1,30.08,NNE,23,0.0,0.0,88,0.00,,,0.00,WUHU216HW,2013-06-20 12:41:00,
2013-06-20 08:46:00,66.0,62.3,30.08,ENE,68,0.0,0.0,88,0.00,,,0.00,WUHU216HW,2013-06-20 12:46:00,
2013-06-20 08:51:00,66.7,63.0,30.08,ENE,68,0.0,0.0,88,0.00,,,0.00,WUHU216HW,2013-06-20 12:51:00,
2013-06-20 08:57:00,66.9,63.2,30.08,NE,45,0.0,0.0,88,0.00,,,0.00,WUHU216HW,2013-06-20 12:57:00,
2013-06-20 09:02:00,67.2,63.5,30.08,ESE,113,0.0,0.0,88,0.00,,,0.00,WUHU216HW,2013-06-20 13:02:00,
2013-06-20 09:07:00,67.8,63.7,30.08,ESE,113,0.0,0.0,87,0.00,,,0.00,WUHU216HW,2013-06-20 13:07:00,
2013-06-20 09:12:00,68.1,64.1,30.09,ENE,68,0.0,0.0,87,0.00,,,0.00,WUHU216HW,2013-06-20 13:12:00,
2013-06-20 09:17:00,68.5,64.1,30.09,ENE,68,0.0,0.0,86,0.00,,,0.00,WUHU216HW,2013-06-20 13:17:00,
2013-06-20 09:22:00,68.9,64.5,30.09,NE,45,0.0,4.6,86,0.00,,,0.00,WUHU216HW,2013-06-20 13:22:00,
2013-06-20 09:27:00,69.4,65.0,30.09,NNE,23,0.0,4.6,86,0.00,,,0.00,WUHU216HW,2013-06-20 13:27:00,
2013-06-20 09:32:00,69.6,64.8,30.09,ENE,68,0.0,0.0,85,0.00,,,0.00,WUHU216HW,2013-06-20 13:32:00,
2013-06-20 09:37:00,69.9,65.2,30.09,ESE,113,0.0,0.0,85,0.00,,,0.00,WUHU216HW,2013-06-20 13:37:00,
2013-06-20 09:42:00,70.3,65.5,30.09,ENE,68,0.0,0.0,85,0.00,,,0.00,WUHU216HW,2013-06-20 13:42:00,
2013-06-20 09:47:00,70.7,65.5,30.09,East,90,0.0,0.0,84,0.00,,,0.00,WUHU216HW,2013-06-20 13:47:00,
2013-06-20 09:52:00,70.8,65.4,30.09,ENE,68,0.0,2.9,83,0.00,,,0.00,WUHU216HW,2013-06-20 13:52:00,
2013-06-20 09:57:00,71.2,65.7,30.09,ENE,68,0.0,2.9,83,0.00,,,0.00,WUHU216HW,2013-06-20 13:57:00,
2013-06-20 10:02:00,71.4,65.9,30.09,SE,135,0.0,0.0,83,0.00,,,0.00,WUHU216HW,2013-06-20 14:02:00,
2013-06-20 10:07:00,71.6,66.4,30.09,ENE,68,0.0,0.0,84,0.00,,,0.00,WUHU216HW,2013-06-20 14:07:00,
2013-06-20 10:12:00,71.7,66.3,30.09,East,90,0.0,0.0,83,0.00,,,0.00,WUHU216HW,2013-06-20 14:12:00,
2013-06-20 10:17:00,72.1,67.0,30.09,ENE,68,0.0,0.0,84,0.00,,,0.00,WUHU216HW,2013-06-20 14:17:00,
2013-06-20 10:22:00,72.5,67.3,30.09,SE,135,0.0,0.0,84,0.00,,,0.00,WUHU216HW,2013-06-20 14:22:00,
2013-06-20 10:28:00,73.2,67.7,30.09,East,90,0.0,0.0,83,0.00,,,0.00,WUHU216HW,2013-06-20 14:28:00,
2013-06-20 10:33:00,73.4,67.6,30.09,SSE,158,1.1,5.5,82,0.00,,,0.00,WUHU216HW,2013-06-20 14:33:00,
2013-06-20 10:38:00,73.7,67.6,30.09,SSE,158,0.0,5.5,81,0.00,,,0.00,WUHU216HW,2013-06-20 14:38:00,
2013-06-20 10:43:00,73.9,67.4,30.09,ENE,68,2.0,2.0,80,0.00,,,0.00,WUHU216HW,2013-06-20 14:43:00,
2013-06-20 10:48:00,74.1,67.6,30.09,ENE,68,0.0,2.0,80,0.00,,,0.00,WUHU216HW,2013-06-20 14:48:00,
2013-06-20 10:53:00,74.4,68.0,30.09,ESE,113,0.0,2.0,80,0.00,,,0.00,WUHU216HW,2013-06-20 14:53:00,
2013-06-20 10:58:00,75.0,68.1,30.09,NE,45,0.0,0.0,79,0.00,,,0.00,WUHU216HW,2013-06-20 14:58:00,
2013-06-20 11:03:00,75.3,68.0,30.09,NE,45,3.1,3.1,78,0.00,,,0.00,WUHU216HW,2013-06-20 15:03:00,
2013-06-20 11:08:00,75.5,68.2,30.09,ESE,113,4.4,4.4,78,0.00,,,0.00,WUHU216HW,2013-06-20 15:08:00,
2013-06-20 11:13:00,76.1,68.3,30.09,ENE,68,0.0,4.4,77,0.00,,,0.00,WUHU216HW,2013-06-20 15:13:00,
2013-06-20 11:18:00,76.2,68.1,30.09,NNE,23,0.0,0.0,76,0.00,,,0.00,WUHU216HW,2013-06-20 15:18:00,
2013-06-20 11:23:00,76.8,68.2,30.09,ESE,113,0.0,4.9,75,0.00,,,0.00,WUHU216HW,2013-06-20 15:23:00,
2013-06-20 11:28:00,77.1,68.6,30.10,SE,135,2.6,4.9,75,0.00,,,0.00,WUHU216HW,2013-06-20 15:28:00,
2013-06-20 11:33:00,77.1,68.6,30.09,SE,135,0.0,2.6,75,0.00,,,0.00,WUHU216HW,2013-06-20 15:33:00,
2013-06-20 11:38:00,77.1,68.2,30.10,SE,135,0.0,0.0,74,0.00,,,0.00,WUHU216HW,2013-06-20 15:38:00,
2013-06-20 11:43:00,77.3,68.7,30.10,ENE,68,0.0,0.0,75,0.00,,,0.00,WUHU216HW,2013-06-20 15:43:00,
2013-06-20 11:48:00,77.7,69.1,30.09,ESE,113,0.0,0.0,75,0.00,,,0.00,WUHU216HW,2013-06-20 15:48:00,
2013-06-20 11:53:00,78.0,69.0,30.09,NE,45,2.9,3.5,74,0.00,,,0.00,WUHU216HW,2013-06-20 15:53:00,
2013-06-20 11:58:00,78.4,69.0,30.09,NE,45,0.0,3.5,73,0.00,,,0.00,WUHU216HW,2013-06-20 15:58:00,
2013-06-20 12:03:00,78.8,69.3,30.09,ESE,113,0.0,2.9,73,0.00,,,0.00,WUHU216HW,2013-06-20 16:03:00,
2013-06-20 12:09:00,79.1,68.9,30.09,East,90,0.0,0.0,71,0.00,,,0.00,WUHU216HW,2013-06-20 16:09:00,
2013-06-20 12:14:00,79.3,69.5,30.09,ESE,113,0.0,0.0,72,0.00,,,0.00,WUHU216HW,2013-06-20 16:14:00,
2013-06-20 12:19:00,79.5,69.2,30.09,SSE,158,0.2,0.2,71,0.00,,,0.00,WUHU216HW,2013-06-20 16:19:00,
2013-06-20 12:24:00,79.7,69.0,30.09,South,180,0.0,0.2,70,0.00,,,0.00,WUHU216HW,2013-06-20 16:24:00,
2013-06-20 12:29:00,79.7,69.0,30.09,ESE,113,0.0,0.0,70,0.00,,,0.00,WUHU216HW,2013-06-20 16:29:00,
2013-06-20 12:34:00,79.5,68.9,30.09,ESE,113,0.0,0.0,70,0.00,,,0.00,WUHU216HW,2013-06-20 16:34:00,
2013-06-20 12:39:00,79.5,69.2,30.09,SSE,158,0.0,0.0,71,0.00,,,0.00,WUHU216HW,2013-06-20 16:39:00,
2013-06-20 12:44:00,79.7,69.4,30.09,ESE,113,0.0,0.0,71,0.00,,,0.00,WUHU216HW,2013-06-20 16:44:00,
2013-06-20 12:49:00,79.8,69.2,30.08,ESE,113,0.0,0.0,70,0.00,,,0.00,WUHU216HW,2013-06-20 16:49:00,
2013-06-20 12:54:00,80.2,69.1,30.09,ESE,113,0.0,0.0,69,0.00,,,0.00,WUHU216HW,2013-06-20 16:54:00,
2013-06-20 12:59:00,80.4,68.9,30.08,NNE,23,0.0,0.0,68,0.00,,,0.00,WUHU216HW,2013-06-20 16:59:00,
2013-06-20 13:04:00,80.4,68.4,30.08,North,0,0.0,0.0,67,0.00,,,0.00,WUHU216HW,2013-06-20 17:04:00,
2013-06-20 13:09:00,80.7,68.7,30.08,NE,45,0.0,0.0,67,0.00,,,0.00,WUHU216HW,2013-06-20 17:09:00,
2013-06-20 13:14:00,80.7,69.2,30.08,SSE,158,0.0,0.0,68,0.00,,,0.00,WUHU216HW,2013-06-20 17:14:00,
2013-06-20 13:19:00,80.7,68.3,30.08,NNE,23,0.0,0.0,66,0.00,,,0.00,WUHU216HW,2013-06-20 17:19:00,
2013-06-20 13:24:00,80.9,69.4,30.08,ENE,68,0.0,0.0,68,0.00,,,0.00,WUHU216HW,2013-06-20 17:24:00,
2013-06-20 13:29:00,80.9,68.9,30.07,NE,45,0.0,0.0,67,0.00,,,0.00,WUHU216HW,2013-06-20 17:29:00,
2013-06-20 13:34:00,81.3,69.7,30.07,SSE,158,0.0,0.0,68,0.00,,,0.00,WUHU216HW,2013-06-20 17:34:00,
2013-06-20 13:39:00,81.6,69.1,30.08,SSE,158,0.8,2.9,66,0.00,,,0.00,WUHU216HW,2013-06-20 17:39:00,
2013-06-20 13:44:00,82.2,68.7,30.08,ENE,68,0.0,2.9,64,0.00,,,0.00,WUHU216HW,2013-06-20 17:44:00,
2013-06-20 13:49:00,82.5,69.0,30.08,SE,135,0.0,2.4,64,0.00,,,0.00,WUHU216HW,2013-06-20 17:49:00,
2013-06-20 13:54:00,82.9,68.9,30.07,ENE,68,4.4,4.4,63,0.00,,,0.00,WUHU216HW,2013-06-20 17:54:00,
2013-06-20 13:59:00,83.4,69.0,30.08,NNE,23,0.0,4.4,62,0.00,,,0.00,WUHU216HW,2013-06-20 17:59:00,
2013-06-20 14:05:00,83.8,68.9,30.07,ENE,68,4.0,4.0,61,0.00,,,0.00,WUHU216HW,2013-06-20 18:05:00,
2013-06-20 14:10:00,84.0,69.6,30.07,SSE,158,0.0,4.0,62,0.00,,,0.00,WUHU216HW,2013-06-20 18:10:00,
2013-06-20 14:15:00,84.5,69.6,30.07,ESE,113,0.0,4.0,61,0.00,,,0.00,WUHU216HW,2013-06-20 18:15:00,
2013-06-20 14:20:00,84.9,69.5,30.07,South,180,0.0,0.0,60,0.00,,,0.00,WUHU216HW,2013-06-20 18:20:00,
2013-06-20 14:25:00,84.9,69.0,30.07,South,180,0.0,0.0,59,0.00,,,0.00,WUHU216HW,2013-06-20 18:25:00,
2013-06-20 14:30:00,85.1,68.6,30.07,East,90,0.0,3.8,58,0.00,,,0.00,WUHU216HW,2013-06-20 18:30:00,
2013-06-20 14:35:00,85.2,70.3,30.07,SE,135,0.0,3.8,61,0.00,,,0.00,WUHU216HW,2013-06-20 18:35:00,
2013-06-20 14:40:00,85.2,68.8,30.07,East,90,0.0,0.0,58,0.00,,,0.00,WUHU216HW,2013-06-20 18:40:00,
2013-06-20 14:45:00,85.6,68.6,30.06,SSE,158,0.0,0.0,57,0.00,,,0.00,WUHU216HW,2013-06-20 18:45:00,
2013-06-20 14:50:00,85.2,68.3,30.06,ESE,113,6.4,6.4,57,0.00,,,0.00,WUHU216HW,2013-06-20 18:50:00,
2013-06-20 14:55:00,85.1,67.6,30.06,East,90,0.0,6.4,56,0.00,,,0.00,WUHU216HW,2013-06-20 18:55:00,
2013-06-20 15:00:00,84.9,67.9,30.06,NE,45,0.0,6.4,57,0.00,,,0.00,WUHU216HW,2013-06-20 19:00:00,
2013-06-20 15:05:00,84.7,67.8,30.06,ESE,113,2.2,2.2,57,0.00,,,0.00,WUHU216HW,2013-06-20 19:05:00,
2013-06-20 15:10:00,84.7,67.8,30.06,East,90,0.0,2.2,57,0.00,,,0.00,WUHU216HW,2013-06-20 19:10:00,
2013-06-20 15:15:00,84.5,67.1,30.06,SSW,203,0.0,0.0,56,0.00,,,0.00,WUHU216HW,2013-06-20 19:15:00,
2013-06-20 15:20:00,84.3,66.4,30.06,ESE,113,0.0,0.0,55,0.00,,,0.00,WUHU216HW,2013-06-20 19:20:00,
2013-06-20 15:25:00,84.3,66.4,30.06,ENE,68,0.0,0.0,55,0.00,,,0.00,WUHU216HW,2013-06-20 19:25:00,
2013-06-20 15:31:00,84.3,66.4,30.06,ESE,113,0.0,0.0,55,0.00,,,0.00,WUHU216HW,2013-06-20 19:31:00,
2013-06-20 15:36:00,84.2,66.2,30.06,ESE,113,0.0,0.0,55,0.00,,,0.00,WUHU216HW,2013-06-20 19:36:00,
2013-06-20 15:41:00,84.0,66.6,30.06,ESE,113,0.0,0.0,56,0.00,,,0.00,WUHU216HW,2013-06-20 19:41:00,
2013-06-20 15:46:00,84.0,67.6,30.05,ESE,113,0.0,0.0,58,0.00,,,0.00,WUHU216HW,2013-06-20 19:46:00,
2013-06-20 15:51:00,83.8,66.4,30.05,ESE,113,0.0,0.0,56,0.00,,,0.00,WUHU216HW,2013-06-20 19:51:00,
2013-06-20 15:56:00,83.8,66.9,30.05,NE,45,0.0,0.0,57,0.00,,,0.00,WUHU216HW,2013-06-20 19:56:00,
2013-06-20 16:01:00,83.8,67.4,30.05,East,90,0.0,0.0,58,0.00,,,0.00,WUHU216HW,2013-06-20 20:01:00,
2013-06-20 16:06:00,83.6,66.2,30.05,East,90,0.0,0.0,56,0.00,,,0.00,WUHU216HW,2013-06-20 20:06:00,
2013-06-20 16:11:00,83.4,66.0,30.05,ESE,113,0.0,0.0,56,0.00,,,0.00,WUHU216HW,2013-06-20 20:11:00,
2013-06-20 16:16:00,83.4,66.6,30.04,ESE,113,0.0,0.0,57,0.00,,,0.00,WUHU216HW,2013-06-20 20:16:00,
2013-06-20 16:21:00,83.4,66.6,30.04,SE,135,0.0,0.0,57,0.00,,,0.00,WUHU216HW,2013-06-20 20:21:00,
2013-06-20 16:26:00,83.1,67.2,30.04,SSE,158,0.0,0.0,59,0.00,,,0.00,WUHU216HW,2013-06-20 20:26:00,
2013-06-20 16:31:00,82.7,67.9,30.04,SSE,158,0.0,0.0,61,0.00,,,0.00,WUHU216HW,2013-06-20 20:31:00,
2013-06-20 16:36:00,82.5,67.7,30.04,SSE,158,0.0,0.0,61,0.00,,,0.00,WUHU216HW,2013-06-20 20:36:00,
2013-06-20 16:41:00,82.5,67.7,30.04,SE,135,0.0,0.0,61,0.00,,,0.00,WUHU216HW,2013-06-20 20:41:00,
2013-06-20 16:46:00,82.5,67.7,30.04,SE,135,0.0,0.0,61,0.00,,,0.00,WUHU216HW,2013-06-20 20:46:00,
2013-06-20 16:51:00,82.4,66.5,30.04,ENE,68,0.0,0.0,59,0.00,,,0.00,WUHU216HW,2013-06-20 20:51:00,
2013-06-20 16:56:00,82.5,67.2,30.04,ENE,68,0.0,0.0,60,0.00,,,0.00,WUHU216HW,2013-06-20 20:56:00,
2013-06-20 17:02:00,82.5,68.1,30.04,ENE,68,0.0,0.0,62,0.00,,,0.00,WUHU216HW,2013-06-20 21:02:00,
2013-06-20 17:07:00,82.5,68.1,30.04,East,90,0.0,0.0,62,0.00,,,0.00,WUHU216HW,2013-06-20 21:07:00,
2013-06-20 17:12:00,82.5,68.1,30.03,ESE,113,0.0,0.0,62,0.00,,,0.00,WUHU216HW,2013-06-20 21:12:00,
2013-06-20 17:17:00,82.5,68.1,30.04,ESE,113,0.0,0.0,62,0.00,,,0.00,WUHU216HW,2013-06-20 21:17:00,
2013-06-20 17:22:00,82.5,67.2,30.04,East,90,0.0,0.0,60,0.00,,,0.00,WUHU216HW,2013-06-20 21:22:00,
2013-06-20 17:27:00,82.5,67.2,30.04,ESE,113,0.0,0.0,60,0.00,,,0.00,WUHU216HW,2013-06-20 21:27:00,
2013-06-20 17:32:00,82.5,67.7,30.03,ESE,113,0.0,0.0,61,0.00,,,0.00,WUHU216HW,2013-06-20 21:32:00,
2013-06-20 17:37:00,82.2,67.3,30.03,East,90,0.0,0.0,61,0.00,,,0.00,WUHU216HW,2013-06-20 21:37:00,
2013-06-20 17:42:00,82.2,67.3,30.03,East,90,0.0,0.0,61,0.00,,,0.00,WUHU216HW,2013-06-20 21:42:00,
2013-06-20 17:47:00,82.0,68.1,30.04,ESE,113,0.0,0.0,63,0.00,,,0.00,WUHU216HW,2013-06-20 21:47:00,
2013-06-20 17:52:00,81.8,68.4,30.03,ESE,113,0.0,0.0,64,0.00,,,0.00,WUHU216HW,2013-06-20 21:52:00,
2013-06-20 17:57:00,81.6,68.2,30.04,ESE,113,0.0,0.0,64,0.00,,,0.00,WUHU216HW,2013-06-20 21:57:00,
2013-06-20 18:02:00,81.5,68.5,30.04,ESE,113,0.0,0.0,65,0.00,,,0.00,WUHU216HW,2013-06-20 22:02:00,
2013-06-20 18:07:00,81.3,69.2,30.03,ESE,113,0.0,0.0,67,0.00,,,0.00,WUHU216HW,2013-06-20 22:07:00,
2013-06-20 18:12:00,81.1,69.5,30.04,ESE,113,0.0,0.0,68,0.00,,,0.00,WUHU216HW,2013-06-20 22:12:00,
2013-06-20 18:17:00,81.1,69.5,30.04,ESE,113,0.0,0.0,68,0.00,,,0.00,WUHU216HW,2013-06-20 22:17:00,
2013-06-20 18:22:00,81.3,69.7,30.03,ESE,113,0.0,0.0,68,0.00,,,0.00,WUHU216HW,2013-06-20 22:22:00,
2013-06-20 18:28:00,81.3,70.1,30.03,ESE,113,0.0,0.0,69,0.00,,,0.00,WUHU216HW,2013-06-20 22:28:00,
2013-06-20 18:33:00,81.3,69.7,30.03,ESE,113,0.0,0.0,68,0.00,,,0.00,WUHU216HW,2013-06-20 22:33:00,
2013-06-20 18:38:00,81.3,70.1,30.03,ESE,113,0.0,0.0,69,0.00,,,0.00,WUHU216HW,2013-06-20 22:38:00,
2013-06-20 18:43:00,81.3,70.1,30.03,ESE,113,0.0,0.0,69,0.00,,,0.00,WUHU216HW,2013-06-20 22:43:00,
2013-06-20 18:48:00,81.3,70.1,30.03,ESE,113,0.0,0.0,69,0.00,,,0.00,WUHU216HW,2013-06-20 22:48:00,
2013-06-20 18:53:00,81.1,70.0,30.03,ESE,113,0.0,0.0,69,0.00,,,0.00,WUHU216HW,2013-06-20 22:53:00,
2013-06-20 18:58:00,81.1,69.5,30.03,ESE,113,0.0,0.0,68,0.00,,,0.00,WUHU216HW,2013-06-20 22:58:00,
2013-06-20 19:03:00,81.1,69.5,30.03,ESE,113,0.0,0.0,68,0.00,,,0.00,WUHU216HW,2013-06-20 23:03:00,
2013-06-20 19:08:00,80.9,69.4,30.03,ESE,113,0.0,0.0,68,0.00,,,0.00,WUHU216HW,2013-06-20 23:08:00,
2013-06-20 19:13:00,80.9,69.2,30.03,ESE,113,0.0,0.0,68,0.00,,,0.00,WUHU216HW,2013-06-20 23:13:00,
2013-06-20 19:18:00,80.7,69.2,30.03,ESE,113,0.0,0.0,68,0.00,,,0.00,WUHU216HW,2013-06-20 23:18:00,
2013-06-20 19:23:00,80.6,69.2,30.03,ESE,113,0.0,0.0,68,0.00,,,0.00,WUHU216HW,2013-06-20 23:23:00,
2013-06-20 19:28:00,80.6,69.0,30.03,ESE,113,0.0,0.0,68,0.00,,,0.00,WUHU216HW,2013-06-20 23:28:00,
2013-06-20 19:33:00,80.4,68.9,30.03,ESE,113,0.0,0.0,68,0.00,,,0.00,WUHU216HW,2013-06-20 23:33:00,
2013-06-20 19:38:00,80.4,68.9,30.03,ESE,113,0.0,0.0,68,0.00,,,0.00,WUHU216HW,2013-06-20 23:38:00,
2013-06-20 19:43:00,80.4,69.3,30.03,ESE,113,0.0,0.0,69,0.00,,,0.00,WUHU216HW,2013-06-20 23:43:00,
2013-06-20 19:48:00,80.2,68.7,30.03,ESE,113,0.0,0.0,68,0.00,,,0.00,WUHU216HW,2013-06-20 23:48:00,
2013-06-20 19:53:00,79.8,69.2,30.03,ESE,113,0.0,0.0,70,0.00,,,0.00,WUHU216HW,2013-06-20 23:53:00,
2013-06-20 19:59:00,79.7,69.0,30.03,ESE,113,0.0,0.0,70,0.00,,,0.00,WUHU216HW,2013-06-20 23:59:00,
2013-06-20 20:04:00,79.5,68.9,30.03,ESE,113,0.0,0.0,70,0.00,,,0.00,WUHU216HW,2013-06-21 00:04:00,
2013-06-20 20:09:00,79.5,68.9,30.03,ESE,113,0.0,0.0,70,0.00,,,0.00,WUHU216HW,2013-06-21 00:09:00,
2013-06-20 20:25:00,78.8,68.5,30.03,ESE,113,0.0,0.0,71,0.00,,,0.00,WUHU216HW,2013-06-21 00:25:00,
2013-06-20 20:35:00,78.6,68.3,30.03,ESE,113,0.0,0.0,71,0.00,,,0.00,WUHU216HW,2013-06-21 00:35:00,
2013-06-20 20:40:00,78.6,68.3,30.04,ESE,113,0.0,0.0,71,0.00,,,0.00,WUHU216HW,2013-06-21 00:40:00,
2013-06-20 20:45:00,78.4,68.2,30.04,ESE,113,0.0,0.0,71,0.00,,,0.00,WUHU216HW,2013-06-21 00:45:00,
2013-06-20 20:50:00,78.0,67.9,30.04,ESE,113,0.0,0.0,71,0.00,,,0.00,WUHU216HW,2013-06-21 00:50:00,
2013-06-20 20:55:00,78.0,67.9,30.04,ESE,113,0.0,0.0,71,0.00,,,0.00,WUHU216HW,2013-06-21 00:55:00,
2013-06-20 21:00:00,77.7,67.5,30.04,ESE,113,0.0,0.0,71,0.00,,,0.00,WUHU216HW,2013-06-21 01:00:00,
2013-06-20 21:05:00,77.5,67.8,30.04,ENE,68,0.0,0.0,72,0.00,,,0.00,WUHU216HW,2013-06-21 01:05:00,
2013-06-20 21:10:00,77.3,67.6,30.04,ENE,68,0.0,0.0,72,0.00,,,0.00,WUHU216HW,2013-06-21 01:10:00,
2013-06-20 21:15:00,77.0,67.3,30.04,ENE,68,0.0,0.0,72,0.00,,,0.00,WUHU216HW,2013-06-21 01:15:00,
2013-06-20 21:20:00,76.8,67.5,30.04,ENE,68,0.0,0.0,73,0.00,,,0.00,WUHU216HW,2013-06-21 01:20:00,
2013-06-20 21:25:00,76.2,66.9,30.04,ENE,68,0.0,0.0,73,0.00,,,0.00,WUHU216HW,2013-06-21 01:25:00,
2013-06-20 21:30:00,76.1,66.8,30.04,ENE,68,0.0,0.0,73,0.00,,,0.00,WUHU216HW,2013-06-21 01:30:00,
2013-06-20 21:35:00,75.9,67.0,30.04,ENE,68,0.0,0.0,74,0.00,,,0.00,WUHU216HW,2013-06-21 01:35:00,
2013-06-20 21:40:00,75.3,66.9,30.04,ENE,68,0.0,0.0,75,0.00,,,0.00,WUHU216HW,2013-06-21 01:40:00,
2013-06-20 21:45:00,75.0,66.5,30.04,ENE,68,0.0,0.0,75,0.00,,,0.00,WUHU216HW,2013-06-21 01:45:00,
2013-06-20 21:50:00,74.8,66.3,30.05,ENE,68,0.0,0.0,75,0.00,,,0.00,WUHU216HW,2013-06-21 01:50:00,
2013-06-20 21:55:00,74.4,66.0,30.05,ENE,68,0.0,0.0,75,0.00,,,0.00,WUHU216HW,2013-06-21 01:55:00,
2013-06-20 22:00:00,74.3,65.8,30.05,ENE,68,0.0,0.0,75,0.00,,,0.00,WUHU216HW,2013-06-21 02:00:00,
2013-06-20 22:05:00,74.1,65.7,30.05,ENE,68,0.0,0.0,75,0.00,,,0.00,WUHU216HW,2013-06-21 02:05:00,
2013-06-20 22:10:00,73.9,65.9,30.05,ENE,68,0.0,0.0,76,0.00,,,0.00,WUHU216HW,2013-06-21 02:10:00,
2013-06-20 22:15:00,73.9,65.9,30.05,ENE,68,0.0,0.0,76,0.00,,,0.00,WUHU216HW,2013-06-21 02:15:00,
2013-06-20 22:20:00,73.7,65.7,30.05,ENE,68,0.0,0.0,76,0.00,,,0.00,WUHU216HW,2013-06-21 02:20:00,
2013-06-20 22:25:00,73.5,65.5,30.05,ENE,68,0.0,0.0,76,0.00,,,0.00,WUHU216HW,2013-06-21 02:25:00,
2013-06-20 22:30:00,73.2,65.2,30.05,ENE,68,0.0,0.0,76,0.00,,,0.00,WUHU216HW,2013-06-21 02:30:00,
2013-06-20 22:35:00,73.0,65.4,30.05,ENE,68,0.0,0.0,77,0.00,,,0.00,WUHU216HW,2013-06-21 02:35:00,
2013-06-20 22:40:00,72.6,65.0,30.06,ENE,68,0.0,0.0,77,0.00,,,0.00,WUHU216HW,2013-06-21 02:40:00,
2013-06-20 22:45:00,72.5,64.8,30.05,ENE,68,0.0,0.0,77,0.00,,,0.00,WUHU216HW,2013-06-21 02:45:00,
2013-06-20 22:50:00,72.5,64.8,30.05,ENE,68,0.0,0.0,77,0.00,,,0.00,WUHU216HW,2013-06-21 02:50:00,
2013-06-20 22:55:00,72.3,64.7,30.06,ENE,68,0.0,0.0,77,0.00,,,0.00,WUHU216HW,2013-06-21 02:55:00,
2013-06-20 23:00:00,72.1,64.5,30.06,ENE,68,0.0,0.0,77,0.00,,,0.00,WUHU216HW,2013-06-21 03:00:00,
2013-06-20 23:05:00,71.9,64.7,30.06,ENE,68,0.0,0.0,78,0.00,,,0.00,WUHU216HW,2013-06-21 03:05:00,
2013-06-20 23:10:00,71.7,64.5,30.06,ENE,68,0.0,0.0,78,0.00,,,0.00,WUHU216HW,2013-06-21 03:10:00,
2013-06-20 23:15:00,71.4,64.1,30.06,ENE,68,0.0,0.0,78,0.00,,,0.00,WUHU216HW,2013-06-21 03:15:00,
2013-06-20 23:20:00,71.4,64.1,30.06,ENE,68,0.0,0.0,78,0.00,,,0.00,WUHU216HW,2013-06-21 03:20:00,
2013-06-20 23:25:00,71.2,64.0,30.06,ENE,68,0.0,0.0,78,0.00,,,0.00,WUHU216HW,2013-06-21 03:25:00,
2013-06-20 23:30:00,71.2,64.0,30.06,ENE,68,0.0,0.0,78,0.00,,,0.00,WUHU216HW,2013-06-21 03:30:00,
2013-06-20 23:35:00,70.8,63.6,30.06,ENE,68,0.0,0.0,78,0.00,,,0.00,WUHU216HW,2013-06-21 03:35:00,
2013-06-20 23:40:00,70.8,64.0,30.06,ENE,68,0.0,0.0,79,0.00,,,0.00,WUHU216HW,2013-06-21 03:40:00,
2013-06-20 23:45:00,70.7,63.8,30.06,ENE,68,0.0,0.0,79,0.00,,,0.00,WUHU216HW,2013-06-21 03:45:00,
2013-06-20 23:50:00,70.7,63.8,30.06,ENE,68,0.0,0.0,79,0.00,,,0.00,WUHU216HW,2013-06-21 03:50:00,
2013-06-20 23:55:00,70.5,63.6,30.06,ENE,68,0.0,0.0,79,0.00,,,0.00,WUHU216HW,2013-06-21 03:55:00,